Time;durP1;ratioP1;P1;durP2;ratioP2;P2;SDS_P1;SDS_P2;PMS_P1;PMS_P2;Temp;Humidity;BMP_temperature;BMP_pressure;BME280_temperature;BME280_humidity;BME280_pressure;Samples;Min_cycle;Max_cycle;Signal;HPM_P1;HPM_P2
2022/05/13 00:02:04;;;;;;;5.90;2.97;;;;;;;13.54;52.64;100149.25;10269620;28;20057;-61
2022/05/13 00:07:07;;;;;;;5.30;3.00;;;;;;;13.45;52.49;100140.22;10283020;28;20050;-61
2022/05/13 00:12:09;;;;;;;6.65;3.17;;;;;;;13.42;52.60;100142.16;10292662;28;20567;-61
2022/05/13 00:17:11;;;;;;;5.03;3.42;;;;;;;13.49;52.45;100135.59;10268426;28;20142;-61
2022/05/13 00:22:13;;;;;;;7.18;3.28;;;;;;;13.51;52.56;100136.34;10266844;28;20894;-62
2022/05/13 00:27:17;;;;;;;9.35;3.10;;;;;;;13.59;52.33;100139.28;10267320;28;20066;-62
2022/05/13 00:32:19;;;;;;;7.88;3.65;;;;;;;13.54;52.35;100133.47;10267830;28;20055;-62
2022/05/13 00:37:21;;;;;;;7.38;3.00;;;;;;;13.49;52.53;100125.09;10266329;28;20184;-61
2022/05/13 00:42:27;;;;;;;6.65;3.25;;;;;;;13.52;52.32;100124.84;10267414;28;20055;-61
2022/05/13 00:47:29;;;;;;;8.55;3.30;;;;;;;13.31;52.35;100124.50;10265602;28;20093;-61
2022/05/13 00:52:31;;;;;;;6.20;3.20;;;;;;;13.09;52.74;100132.16;10266587;28;20137;-61
2022/05/13 00:57:35;;;;;;;6.10;3.28;;;;;;;13.04;53.16;100128.16;10266147;28;20411;-61
2022/05/13 01:02:37;;;;;;;7.97;3.30;;;;;;;12.80;53.56;100126.19;10264739;28;20541;-61
2022/05/13 01:07:40;;;;;;;5.88;3.50;;;;;;;12.63;53.88;100120.38;10264712;28;20462;-61
2022/05/13 01:12:49;;;;;;;4.90;3.40;;;;;;;12.55;54.05;100127.91;10266841;28;20306;-61
2022/05/13 01:18:07;;;;;;;5.75;3.45;;;;;;;12.53;54.26;100120.16;10265587;28;20181;-61
2022/05/13 01:23:19;;;;;;;6.50;3.30;;;;;;;12.55;54.37;100126.13;10266036;28;20427;-61
2022/05/13 01:28:24;;;;;;;9.25;3.75;;;;;;;12.48;54.42;100137.09;10265354;28;20137;-61
2022/05/13 01:33:27;;;;;;;6.40;3.20;;;;;;;12.46;54.58;100137.22;10264835;28;20136;-62
2022/05/13 01:38:32;;;;;;;6.32;3.38;;;;;;;12.39;54.61;100141.19;10264399;28;20400;-62
2022/05/13 01:43:35;;;;;;;6.45;3.90;;;;;;;12.10;55.11;100142.97;10264307;28;20514;-62
2022/05/13 01:48:37;;;;;;;6.03;3.63;;;;;;;12.12;55.39;100156.84;10265318;28;20073;-62
2022/05/13 01:53:39;;;;;;;10.48;3.17;;;;;;;12.08;55.42;100159.75;10263097;28;20058;-61
2022/05/13 01:58:41;;;;;;;7.22;3.15;;;;;;;12.19;55.30;100154.69;10296630;28;20367;-61
2022/05/13 02:03:46;;;;;;;7.60;3.92;;;;;;;12.20;55.10;100156.34;10270042;28;20566;-62
2022/05/13 02:08:55;;;;;;;5.82;3.58;;;;;;;12.17;55.20;100160.94;10271142;28;20050;-62
2022/05/13 02:13:56;;;;;;;7.85;3.67;;;;;;;12.07;55.21;100166.75;10270435;28;20409;-61
2022/05/13 02:18:58;;;;;;;6.47;3.60;;;;;;;11.84;55.58;100166.50;10272175;28;20130;-61
2022/05/13 02:24:00;;;;;;;5.85;3.63;;;;;;;11.61;56.09;100164.41;10281271;28;20070;-61
2022/05/13 02:29:02;;;;;;;7.07;3.83;;;;;;;11.43;56.53;100158.50;10274279;28;20141;-61
2022/05/13 02:34:04;;;;;;;6.75;3.95;;;;;;;11.13;56.99;100173.41;10282087;28;20072;-61
2022/05/13 02:39:05;;;;;;;7.30;3.67;;;;;;;11.13;57.10;100170.81;10274190;28;20086;-62
2022/05/13 02:44:07;;;;;;;7.97;3.80;;;;;;;11.17;57.33;100173.13;10269567;28;20129;-61
2022/05/13 02:49:15;;;;;;;8.90;4.45;;;;;;;11.07;57.17;100171.97;10270140;28;20098;-62
2022/05/13 02:54:17;;;;;;;9.35;4.40;;;;;;;10.95;57.59;100172.66;10269709;28;20051;-61
2022/05/13 02:59:19;;;;;;;12.02;4.18;;;;;;;10.77;58.18;100178.09;10270071;28;20047;-62
2022/05/13 03:04:22;;;;;;;9.18;3.95;;;;;;;10.97;57.78;100176.03;10266447;28;20137;-62
2022/05/13 03:09:24;;;;;;;7.30;4.20;;;;;;;11.13;57.64;100174.22;10264313;28;20364;-62
2022/05/13 03:14:26;;;;;;;6.30;3.90;;;;;;;11.28;57.42;100178.59;10263681;28;20137;-61
2022/05/13 03:19:27;;;;;;;8.73;4.40;;;;;;;11.14;57.31;100170.69;10263202;28;20172;-61
2022/05/13 03:24:29;;;;;;;7.10;4.53;;;;;;;10.61;58.17;100167.66;10261816;28;20054;-61
2022/05/13 03:29:31;;;;;;;7.30;4.30;;;;;;;10.25;58.89;100169.69;10268975;28;20434;-61
2022/05/13 03:34:33;;;;;;;7.72;3.90;;;;;;;10.15;59.16;100158.91;10270426;28;21252;-61
2022/05/13 03:39:35;;;;;;;7.05;4.20;;;;;;;10.23;59.26;100161.09;10271037;28;20054;-62
2022/05/13 03:44:37;;;;;;;10.02;3.97;;;;;;;10.32;59.33;100160.56;10269034;28;20152;-61
2022/05/13 03:49:39;;;;;;;8.43;3.65;;;;;;;10.42;59.13;100169.59;10270852;28;20113;-61
2022/05/13 03:54:40;;;;;;;7.32;4.10;;;;;;;10.54;58.96;100174.16;10267873;28;20137;-61
2022/05/13 03:59:42;;;;;;;9.57;4.45;;;;;;;10.64;58.79;100177.09;10268682;28;20053;-61
2022/05/13 04:10:06;;;;;;;6.68;4.28;;;;;;;10.77;58.24;100181.56;10292646;28;20483;-61
2022/05/13 04:20:30;;;;;;;6.87;4.10;;;;;;;11.07;57.48;100190.28;10269417;28;20310;-61
2022/05/13 04:25:32;;;;;;;6.68;3.80;;;;;;;11.40;57.03;100190.09;10274358;28;20612;-63
2022/05/13 04:30:34;;;;;;;6.38;3.60;;;;;;;12.86;54.59;100180.91;10267773;28;20050;-63
2022/05/13 04:35:35;;;;;;;7.32;3.80;;;;;;;14.61;50.43;100182.88;10293974;28;20161;-61
2022/05/13 04:40:37;;;;;;;8.45;3.25;;;;;;;14.67;49.44;100187.69;10266554;28;20442;-62
2022/05/13 04:45:40;;;;;;;5.20;3.00;;;;;;;13.83;51.03;100200.66;10268104;28;20113;-61
2022/05/13 04:50:51;;;;;;;5.63;3.20;;;;;;;13.32;51.76;100202.38;10268165;28;20125;-62
2022/05/13 04:55:54;;;;;;;7.32;3.38;;;;;;;13.53;51.57;100200.97;10267245;28;20121;-61
2022/05/13 05:00:58;;;;;;;7.85;3.30;;;;;;;13.36;51.74;100213.50;10270905;28;20456;-62
2022/05/13 05:06:00;;;;;;;9.55;3.20;;;;;;;14.93;48.96;100213.81;10266949;28;20058;-61
2022/05/13 05:11:03;;;;;;;5.28;2.72;;;;;;;17.37;43.83;100206.81;10267064;28;20134;-61
2022/05/13 05:16:06;;;;;;;8.80;2.92;;;;;;;17.12;43.76;100209.78;10287344;28;20043;-62
2022/05/13 05:21:10;;;;;;;6.82;2.53;;;;;;;16.46;44.78;100215.25;10266767;28;20377;-61
2022/05/13 05:26:11;;;;;;;7.78;2.67;;;;;;;15.49;46.27;100229.84;10267404;28;20138;-62
2022/05/13 05:31:13;;;;;;;6.70;2.53;;;;;;;14.94;47.36;100238.34;10263713;28;20567;-63
2022/05/13 05:36:15;;;;;;;5.90;2.38;;;;;;;14.84;47.77;100251.34;10266142;28;20050;-62
2022/05/13 05:41:18;;;;;;;6.55;2.50;;;;;;;15.09;47.26;100256.50;10265802;28;20074;-61
2022/05/13 05:46:20;;;;;;;6.72;2.65;;;;;;;14.72;48.03;100254.00;10263032;28;20074;-63
2022/05/13 05:51:23;;;;;;;6.88;3.00;;;;;;;14.55;48.36;100256.03;10257827;28;20186;-63
2022/05/13 06:01:46;;;;;;;6.93;2.72;;;;;;;14.28;48.90;100267.66;10258838;28;20141;-62
2022/05/13 06:06:52;;;;;;;7.00;2.72;;;;;;;14.49;48.20;100267.00;10265499;28;20182;-62
2022/05/13 06:11:54;;;;;;;7.45;2.42;;;;;;;14.81;47.60;100270.00;10263577;28;20050;-62
2022/05/13 06:16:56;;;;;;;9.48;2.30;;;;;;;14.88;47.31;100279.13;10288404;28;20060;-63
2022/05/13 06:21:58;;;;;;;8.65;2.35;;;;;;;14.94;47.25;100283.94;10259298;28;20065;-63
2022/05/13 06:27:00;;;;;;;7.93;2.22;;;;;;;14.92;46.92;100282.41;10260228;28;20078;-62
2022/05/13 06:32:01;;;;;;;11.88;2.40;;;;;;;15.06;47.13;100298.03;10292689;28;20143;-62
2022/05/13 06:37:03;;;;;;;8.15;1.92;;;;;;;15.10;46.68;100287.16;10261890;28;20440;-63
2022/05/13 06:42:05;;;;;;;8.73;2.50;;;;;;;15.26;45.67;100289.53;10261288;28;20141;-63
2022/05/13 06:47:08;;;;;;;7.63;1.80;;;;;;;15.50;45.34;100281.63;10262813;28;20534;-62
2022/05/13 06:52:13;;;;;;;9.70;2.13;;;;;;;15.66;44.75;100288.28;10256948;28;20077;-62
2022/05/13 06:57:37;;;;;;;6.05;2.08;;;;;;;15.82;44.16;100286.16;10262400;28;20459;-63
2022/05/13 07:02:39;;;;;;;7.22;2.00;;;;;;;15.88;43.57;100290.13;10257605;28;20053;-63
2022/05/13 07:07:42;;;;;;;14.10;2.50;;;;;;;16.11;43.37;100294.50;10262112;28;20055;-63
2022/05/13 07:12:43;;;;;;;7.82;1.98;;;;;;;16.18;42.74;100287.81;10258988;28;20043;-62
2022/05/13 07:17:45;;;;;;;7.85;2.10;;;;;;;16.30;42.63;100291.28;10280379;28;20464;-66
2022/05/13 07:22:47;;;;;;;8.45;2.15;;;;;;;16.34;41.92;100287.44;10268591;28;20432;-67
2022/05/13 07:27:50;;;;;;;7.78;2.03;;;;;;;16.73;41.62;100282.53;10263583;28;20070;-66
2022/05/13 07:32:52;;;;;;;6.63;1.83;;;;;;;18.52;39.00;100279.78;10259589;28;20129;-67
2022/05/13 07:37:54;;;;;;;8.68;2.13;;;;;;;19.76;36.26;100286.28;10263238;28;20562;-67
2022/05/13 07:42:56;;;;;;;9.90;2.40;;;;;;;19.78;35.50;100298.44;10257270;28;20625;-67
2022/05/13 07:48:01;;;;;;;8.90;1.90;;;;;;;20.05;33.62;100298.53;10260250;28;20059;-67
2022/05/13 07:53:03;;;;;;;8.45;2.10;;;;;;;21.62;31.94;100293.84;10258083;28;20047;-67
2022/05/13 07:58:05;;;;;;;5.35;1.92;;;;;;;21.48;31.24;100307.69;10260334;28;20547;-67
2022/05/13 08:03:09;;;;;;;6.60;1.90;;;;;;;20.87;31.80;100311.97;10275720;28;20046;-67
2022/05/13 08:08:23;;;;;;;8.02;2.45;;;;;;;21.11;30.57;100314.91;10260784;28;20455;-66
2022/05/13 08:13:28;;;;;;;7.10;2.10;;;;;;;21.02;31.37;100308.69;10263651;28;20054;-67
2022/05/13 08:18:30;;;;;;;6.38;2.10;;;;;;;21.07;31.10;100311.72;10267722;28;20102;-67
2022/05/13 08:23:32;;;;;;;9.13;2.00;;;;;;;21.93;30.37;100312.91;10271274;28;20546;-68
2022/05/13 08:28:34;;;;;;;8.13;2.17;;;;;;;22.62;28.66;100302.19;10262742;28;20514;-68
2022/05/13 08:33:36;;;;;;;9.70;2.10;;;;;;;22.48;28.53;100316.97;10264475;28;20789;-68
2022/05/13 08:38:39;;;;;;;8.00;2.10;;;;;;;22.42;28.36;100317.59;10260921;28;20133;-68
2022/05/13 08:43:49;;;;;;;6.20;1.90;;;;;;;21.12;30.17;100327.25;10260889;28;20144;-68
2022/05/13 08:49:15;;;;;;;6.50;1.73;;;;;;;20.91;30.13;100324.00;10258469;28;20423;-67
2022/05/13 08:54:20;;;;;;;7.50;2.03;;;;;;;20.25;31.03;100332.03;10261612;28;20049;-67
2022/05/13 08:59:25;;;;;;;6.57;1.95;;;;;;;20.10;30.87;100337.94;10264352;28;20095;-68
2022/05/13 09:04:36;;;;;;;4.72;1.75;;;;;;;20.93;29.94;100335.31;10265662;28;20145;-68
2022/05/13 09:09:41;;;;;;;7.22;2.10;;;;;;;21.42;28.94;100328.75;10262939;28;20125;-67
2022/05/13 09:15:11;;;;;;;7.80;1.90;;;;;;;21.14;28.55;100343.88;10265634;28;20419;-67
2022/05/13 09:20:17;;;;;;;5.82;1.90;;;;;;;21.57;28.09;100325.41;10264218;28;20097;-68
2022/05/13 09:25:25;;;;;;;5.45;1.77;;;;;;;21.24;28.54;100317.22;10264624;28;20161;-67
2022/05/13 09:30:33;;;;;;;;;;;;;;;20.67;29.53;100329.00;10261417;28;20059;-68
2022/05/13 09:35:40;;;;;;;5.35;1.50;;;;;;;20.87;29.68;100325.28;10265007;28;20040;-68
2022/05/13 09:40:59;;;;;;;6.75;1.55;;;;;;;20.71;29.01;100317.09;10253339;28;20527;-68
2022/05/13 09:46:08;;;;;;;4.80;1.60;;;;;;;20.58;28.19;100314.75;10278034;28;20146;-68
2022/05/13 09:51:22;;;;;;;6.63;1.30;;;;;;;20.87;27.89;100323.44;10271266;28;20053;-68
2022/05/13 09:56:56;;;;;;;7.20;1.48;;;;;;;21.24;27.23;100317.22;10262931;28;20611;-68
2022/05/13 10:02:25;;;;;;;6.65;1.60;;;;;;;21.28;27.82;100316.78;10261901;28;20055;-68
2022/05/13 10:07:27;;;;;;;11.43;1.80;;;;;;;21.66;27.65;100307.69;10263754;28;20050;-67
2022/05/13 10:18:37;;;;;;;4.95;1.35;;;;;;;22.27;26.16;100295.19;10262457;28;20067;-68
2022/05/13 10:23:49;;;;;;;6.90;1.60;;;;;;;21.98;27.19;100301.78;10239882;28;20141;-67
2022/05/13 10:29:16;;;;;;;4.28;1.50;;;;;;;21.91;27.21;100298.91;10263007;28;20466;-66
2022/05/13 10:34:36;;;;;;;6.53;1.73;;;;;;;21.72;26.70;100293.78;10257264;28;20051;-67
2022/05/13 10:40:01;;;;;;;5.53;1.70;;;;;;;21.75;26.93;100296.13;10261708;28;20141;-67
2022/05/13 10:45:10;;;;;;;8.82;1.73;;;;;;;21.51;27.46;100299.41;10260439;28;20047;-68
2022/05/13 10:50:34;;;;;;;12.40;1.58;;;;;;;21.08;27.93;100294.78;10262778;28;20062;-66
2022/05/13 10:55:59;;;;;;;4.53;1.60;;;;;;;21.27;28.52;100291.16;10257989;28;20047;-67
2022/05/13 11:01:10;;;;;;;6.03;1.60;;;;;;;21.22;27.92;100295.25;10258730;28;20202;-68
2022/05/13 11:06:24;;;;;;;8.27;1.67;;;;;;;20.69;27.86;100298.66;10256390;28;20467;-68
2022/05/13 11:11:35;;;;;;;6.18;1.50;;;;;;;20.99;28.36;100293.00;10258904;28;20157;-67
2022/05/13 11:16:39;;;;;;;10.05;1.77;;;;;;;21.21;27.99;100280.28;10255946;28;20542;-67
2022/05/13 11:22:00;;;;;;;4.65;1.60;;;;;;;21.16;28.55;100283.41;10258066;28;20154;-68
2022/05/13 11:27:24;;;;;;;3.90;1.48;;;;;;;21.50;27.61;100272.94;10259603;28;20102;-67
2022/05/13 11:32:30;;;;;;;6.32;1.55;;;;;;;21.52;27.78;100276.28;10258789;28;20090;-66
2022/05/13 11:37:40;;;;;;;11.98;1.70;;;;;;;21.64;27.24;100273.22;10260305;28;20379;-67
2022/05/13 11:43:25;;;;;;;7.88;1.65;;;;;;;21.85;27.00;100267.56;10255379;28;20066;-68
2022/05/13 11:48:30;;;;;;;6.35;1.63;;;;;;;22.01;26.98;100281.00;10256698;28;20115;-67
2022/05/13 11:53:51;;;;;;;5.97;1.40;;;;;;;21.84;26.29;100271.25;10261744;28;20050;-67
2022/05/13 11:59:30;;;;;;;5.47;1.42;;;;;;;21.77;26.68;100270.16;10262791;28;20480;-68
2022/05/13 12:04:36;;;;;;;6.60;1.92;;;;;;;21.88;27.11;100267.28;10259691;28;20586;-67
2022/05/13 12:09:49;;;;;;;9.45;1.70;;;;;;;21.94;27.46;100268.47;10266258;28;20055;-67
2022/05/13 12:15:19;;;;;;;9.10;1.67;;;;;;;21.96;27.08;100251.34;10264177;28;20058;-68
2022/05/13 12:20:46;;;;;;;8.60;1.60;;;;;;;22.16;26.78;100258.16;10265499;28;20452;-68
2022/05/13 12:25:49;;;;;;;5.22;1.60;;;;;;;22.22;27.40;100251.34;10265800;28;20561;-68
2022/05/13 12:30:52;;;;;;;10.48;1.73;;;;;;;22.38;27.02;100241.63;10264535;28;20138;-68
2022/05/13 12:42:10;;;;;;;5.28;1.65;;;;;;;22.09;27.06;100240.31;10261711;28;20047;-67
2022/05/13 12:47:18;;;;;;;5.80;1.50;;;;;;;21.99;27.02;100227.03;10261211;28;20522;-67
2022/05/13 12:52:41;;;;;;;4.85;1.80;;;;;;;22.15;27.19;100224.50;10259936;28;20055;-66
2022/05/13 12:57:55;;;;;;;5.65;1.50;;;;;;;22.38;26.98;100225.63;10262572;28;20750;-67
2022/05/13 13:02:58;;;;;;;8.15;2.10;;;;;;;22.47;27.30;100227.34;10259597;28;20082;-67
2022/05/13 13:08:15;;;;;;;6.90;1.53;;;;;;;22.56;26.22;100229.03;10262162;28;20519;-67
2022/05/13 13:13:28;;;;;;;6.32;1.67;;;;;;;22.78;26.11;100238.28;10262516;28;20105;-67
2022/05/13 13:18:33;;;;;;;7.10;1.40;;;;;;;22.74;26.49;100226.28;10261196;28;20046;-67
2022/05/13 13:23:38;;;;;;;4.82;1.60;;;;;;;22.89;26.34;100226.50;10263651;28;20566;-67
2022/05/13 13:28:43;;;;;;;5.07;1.50;;;;;;;23.09;26.50;100227.88;10265098;28;20174;-67
2022/05/13 13:33:56;;;;;;;5.35;1.40;;;;;;;22.99;26.35;100227.19;10264108;28;20057;-67
2022/05/13 13:39:00;;;;;;;6.13;1.55;;;;;;;23.10;26.39;100221.53;10264282;28;20078;-67
2022/05/13 13:44:07;;;;;;;5.97;1.65;;;;;;;23.15;26.19;100221.88;10264278;28;20117;-68
2022/05/13 13:49:17;;;;;;;6.72;1.48;;;;;;;23.28;25.50;100214.22;10261496;28;20054;-68
2022/05/13 13:54:28;;;;;;;5.20;1.48;;;;;;;22.95;26.57;100224.00;10262055;28;20451;-67
2022/05/13 13:59:32;;;;;;;4.03;1.33;;;;;;;23.07;26.53;100219.19;10259664;28;20078;-67
2022/05/13 14:04:38;;;;;;;6.70;1.60;;;;;;;22.87;27.13;100223.16;10261703;28;20055;-67
2022/05/13 14:09:45;;;;;;;12.48;1.90;;;;;;;23.11;26.67;100224.03;10258219;28;20086;-68
2022/05/13 14:14:55;;;;;;;4.95;1.42;;;;;;;23.13;26.16;100226.53;10261703;28;20073;-67
2022/05/13 14:20:08;;;;;;;6.20;1.83;;;;;;;23.13;25.64;100226.53;10261628;28;20495;-67
2022/05/13 14:25:12;;;;;;;4.05;1.40;;;;;;;23.12;25.14;100217.72;10262304;28;20054;-67
2022/05/13 14:30:15;;;;;;;6.47;1.77;;;;;;;23.20;25.68;100227.56;10261794;28;20091;-67
2022/05/13 14:35:26;;;;;;;7.03;1.48;;;;;;;23.20;26.18;100212.38;10262745;28;20129;-68
2022/05/13 14:40:34;;;;;;;5.30;1.60;;;;;;;23.33;25.18;100209.22;10260155;28;20054;-68
2022/05/13 14:45:40;;;;;;;3.90;1.33;;;;;;;23.02;26.58;100201.03;10261885;28;20666;-68
2022/05/13 14:50:55;;;;;;;6.82;1.50;;;;;;;22.99;25.77;100195.16;10259230;28;20062;-67
2022/05/13 14:56:00;;;;;;;7.55;1.52;;;;;;;23.26;25.98;100198.38;10260808;28;20046;-67
2022/05/13 15:01:17;;;;;;;7.32;1.75;;;;;;;23.31;26.05;100193.34;10260062;28;20054;-68
2022/05/13 15:06:31;;;;;;;5.75;1.40;;;;;;;22.86;26.60;100194.84;10262307;28;20145;-67
2022/05/13 15:11:34;;;;;;;6.75;1.67;;;;;;;22.99;26.67;100200.50;10261859;28;20078;-68
2022/05/13 15:16:38;;;;;;;4.90;1.45;;;;;;;22.86;27.27;100192.16;10259199;28;20881;-68
2022/05/13 15:21:40;;;;;;;4.90;1.30;;;;;;;22.99;26.50;100198.69;10259509;28;20058;-68
2022/05/13 15:26:42;;;;;;;4.53;1.30;;;;;;;23.08;26.43;100194.19;10268691;28;20177;-68
2022/05/13 15:31:44;;;;;;;7.47;1.30;;;;;;;22.90;26.73;100190.84;10269153;28;20778;-68
2022/05/13 15:36:46;;;;;;;6.43;1.45;;;;;;;22.82;27.17;100190.81;10265804;28;20142;-68
2022/05/13 15:41:47;;;;;;;7.18;1.60;;;;;;;22.67;27.22;100195.91;10267312;28;20464;-67
2022/05/13 15:46:49;;;;;;;6.28;1.30;;;;;;;22.63;27.36;100192.75;10261625;28;20475;-67
2022/05/13 15:57:12;;;;;;;5.40;1.40;;;;;;;22.97;26.58;100200.69;10264476;28;20113;-67
2022/05/13 16:02:14;;;;;;;8.60;1.45;;;;;;;23.01;26.18;100193.16;10276698;28;20857;-67
2022/05/13 16:07:16;;;;;;;7.00;1.75;;;;;;;23.03;27.23;100191.16;10266364;28;20062;-67
2022/05/13 16:12:23;;;;;;;4.20;1.30;;;;;;;22.92;27.05;100188.84;10274989;28;20299;-67
2022/05/13 16:17:25;;;;;;;4.78;1.40;;;;;;;22.70;27.21;100188.41;10266583;28;20504;-67
2022/05/13 16:22:27;;;;;;;5.35;1.33;;;;;;;22.77;27.63;100187.78;10264645;28;20047;-67
2022/05/13 16:27:33;;;;;;;5.85;1.30;;;;;;;22.94;27.67;100182.34;10270888;28;20069;-67
2022/05/13 16:32:35;;;;;;;8.82;2.92;;;;;;;23.01;27.13;100182.50;10268358;28;20055;-66
2022/05/13 16:37:43;;;;;;;10.10;1.70;;;;;;;22.82;27.65;100185.50;10266671;28;20137;-67
2022/05/13 16:42:45;;;;;;;8.52;2.20;;;;;;;22.77;27.51;100187.78;10264897;28;20262;-66
2022/05/13 16:47:50;;;;;;;8.15;1.90;;;;;;;22.68;28.23;100192.22;10264314;28;20526;-67
2022/05/13 16:52:53;;;;;;;4.40;1.30;;;;;;;22.59;28.37;100191.41;10263765;28;20380;-67
2022/05/13 16:57:56;;;;;;;6.88;1.80;;;;;;;22.58;28.19;100195.06;10266522;28;20260;-66
2022/05/13 17:02:58;;;;;;;4.50;1.50;;;;;;;22.59;28.08;100190.56;10263053;28;20145;-67
2022/05/13 17:08:00;;;;;;;6.65;1.63;;;;;;;22.62;27.97;100191.06;10252749;28;20451;-68
2022/05/13 17:19:15;;;;;;;5.80;1.98;;;;;;;22.47;28.44;100192.69;10264497;28;20056;-68
2022/05/13 17:23:45;;;;;;;4.78;1.52;;;;;;;22.40;28.82;100193.47;10284687;28;20463;-67
2022/05/13 17:28:48;;;;;;;3.22;1.30;;;;;;;22.29;28.50;100194.59;10262922;28;20479;-67
2022/05/13 17:33:51;;;;;;;6.28;1.50;;;;;;;22.19;28.99;100188.56;10275690;28;20059;-68
2022/05/13 17:38:55;;;;;;;3.45;1.40;;;;;;;22.13;29.36;100189.19;10262458;28;20917;-67
2022/05/13 17:43:57;;;;;;;3.72;1.52;;;;;;;21.97;30.18;100194.41;10263231;28;20054;-66
2022/05/13 17:48:59;;;;;;;5.28;1.38;;;;;;;21.98;30.18;100189.94;10259920;28;20396;-67
2022/05/13 17:54:01;;;;;;;4.20;1.38;;;;;;;21.92;30.33;100187.91;10265738;28;20186;-67
2022/05/13 17:59:02;;;;;;;7.00;1.20;;;;;;;21.76;30.52;100192.13;10259393;28;20157;-66
2022/05/13 18:04:05;;;;;;;8.75;1.42;;;;;;;21.65;31.27;100189.72;10262660;28;20945;-66
2022/05/13 18:09:07;;;;;;;4.55;1.30;;;;;;;21.23;31.57;100198.50;10256109;28;20058;-67
2022/05/13 18:14:09;;;;;;;5.95;1.60;;;;;;;20.89;32.64;100198.34;10255823;28;20190;-67
2022/05/13 18:19:10;;;;;;;5.05;1.70;;;;;;;20.52;33.76;100202.91;10271513;28;20077;-68
2022/05/13 18:24:13;;;;;;;5.65;1.60;;;;;;;20.40;34.15;100201.44;10266297;28;20112;-68
2022/05/13 18:29:15;;;;;;;5.38;1.60;;;;;;;20.18;34.39;100208.78;10262481;28;20113;-67
2022/05/13 18:34:18;;;;;;;3.58;1.50;;;;;;;20.07;35.55;100213.44;10257870;28;20051;-67
2022/05/13 18:39:21;;;;;;;5.13;1.67;;;;;;;19.96;36.40;100216.28;10261248;28;20051;-66
2022/05/13 18:49:46;;;;;;;5.72;1.67;;;;;;;19.40;38.29;100227.66;10265784;28;20213;-66
2022/05/13 18:54:48;;;;;;;3.67;1.35;;;;;;;19.06;38.82;100231.69;10276564;28;20109;-67
2022/05/13 18:59:50;;;;;;;6.13;1.50;;;;;;;18.53;39.28;100232.94;10252628;28;20051;-68
2022/05/13 19:04:51;;;;;;;3.67;1.40;;;;;;;18.30;40.41;100242.88;10259187;28;20137;-67
2022/05/13 19:09:53;;;;;;;6.30;1.58;;;;;;;18.08;41.57;100247.47;10255939;28;20047;-67
2022/05/13 19:14:55;;;;;;;4.05;1.48;;;;;;;17.84;42.39;100251.28;10258631;28;20132;-67
2022/05/13 19:19:57;;;;;;;6.47;1.63;;;;;;;17.77;42.80;100255.38;10258418;28;20448;-60
2022/05/13 19:25:00;;;;;;;5.38;1.55;;;;;;;17.36;43.56;100263.31;10268619;28;20561;-61
2022/05/13 19:30:06;;;;;;;6.30;1.70;;;;;;;17.14;44.50;100265.97;10259316;28;20090;-61
2022/05/13 19:35:10;;;;;;;6.03;1.50;;;;;;;17.08;44.58;100270.94;10261772;28;20167;-61
2022/05/13 19:40:14;;;;;;;6.38;1.50;;;;;;;16.96;45.01;100278.03;10263455;28;20051;-60
2022/05/13 19:45:18;;;;;;;5.07;1.60;;;;;;;16.78;45.66;100284.81;10263198;28;20046;-60
2022/05/13 19:50:22;;;;;;;3.67;1.60;;;;;;;16.64;45.66;100285.06;10271694;28;20087;-60
2022/05/13 19:55:24;;;;;;;3.55;1.40;;;;;;;16.44;46.00;100283.16;10261582;28;20103;-60
2022/05/13 20:00:31;;;;;;;6.10;1.60;;;;;;;16.33;46.62;100291.03;10258937;28;20042;-61
2022/05/13 20:10:57;;;;;;;6.40;1.70;;;;;;;16.09;46.98;100301.69;10294804;28;20065;-61
2022/05/13 20:16:01;;;;;;;5.65;1.60;;;;;;;15.93;47.24;100301.19;10272225;28;20050;-61
2022/05/13 20:26:26;;;;;;;5.38;1.42;;;;;;;15.63;47.71;100298.22;10268066;28;20538;-60
2022/05/13 20:31:34;;;;;;;4.57;1.42;;;;;;;15.50;47.97;100314.09;10267034;28;20051;-59
2022/05/13 20:36:38;;;;;;;7.90;1.80;;;;;;;15.35;48.22;100309.91;10264922;28;20539;-60
2022/05/13 20:41:42;;;;;;;4.75;1.77;;;;;;;15.27;48.48;100307.00;10264952;28;20062;-59
2022/05/13 20:46:47;;;;;;;6.13;1.80;;;;;;;15.15;48.79;100321.06;10266026;28;20054;-60
2022/05/13 20:51:48;;;;;;;3.47;1.40;;;;;;;15.02;48.90;100317.66;10266610;28;20149;-60
2022/05/13 20:56:51;;;;;;;6.25;1.90;;;;;;;14.90;49.24;100321.16;10264235;28;20054;-60
2022/05/13 21:01:52;;;;;;;5.05;1.90;;;;;;;14.79;49.66;100327.19;10264926;28;20337;-60
2022/05/13 21:07:27;;;;;;;5.45;2.10;;;;;;;14.63;50.18;100323.97;10266599;28;20512;-59
2022/05/13 21:12:28;;;;;;;4.38;1.80;;;;;;;14.58;50.02;100326.06;10266686;28;20077;-59
2022/05/13 21:17:30;;;;;;;7.38;1.85;;;;;;;14.37;50.13;100327.53;10263994;28;20112;-60
2022/05/13 21:22:32;;;;;;;7.20;1.80;;;;;;;14.24;50.57;100338.06;10265035;28;20130;-61
2022/05/13 21:27:34;;;;;;;7.55;1.80;;;;;;;14.26;50.74;100343.22;10264741;28;20091;-60
2022/05/13 21:37:56;;;;;;;6.90;1.90;;;;;;;14.33;50.46;100355.81;10267185;28;20054;-60
2022/05/13 21:42:58;;;;;;;4.40;1.60;;;;;;;14.16;50.82;100355.31;10264764;28;20428;-60
2022/05/13 21:48:00;;;;;;;5.07;1.85;;;;;;;14.13;51.15;100363.38;10263449;28;20068;-59
2022/05/13 21:53:03;;;;;;;3.80;1.77;;;;;;;14.10;50.98;100368.88;10263895;28;20137;-60
2022/05/13 21:58:06;;;;;;;5.18;2.03;;;;;;;13.92;51.37;100373.59;10262631;28;20062;-60
2022/05/13 22:03:11;;;;;;;5.50;1.92;;;;;;;13.67;51.74;100373.50;10264000;28;20350;-60
2022/05/13 22:08:14;;;;;;;4.45;1.83;;;;;;;13.64;51.84;100379.78;10262255;28;20121;-60
2022/05/13 22:13:16;;;;;;;4.80;1.90;;;;;;;13.59;52.00;100379.28;10263200;28;20058;-60
2022/05/13 22:18:18;;;;;;;5.68;1.77;;;;;;;13.46;52.42;100382.75;10261735;28;20570;-60
2022/05/13 22:23:20;;;;;;;6.53;1.90;;;;;;;13.42;52.48;100389.13;10263860;28;20133;-61
2022/05/13 22:28:21;;;;;;;5.85;2.60;;;;;;;13.35;52.68;100388.66;10261879;28;20106;-60
2022/05/13 22:33:23;;;;;;;6.72;2.30;;;;;;;13.23;52.95;100391.25;10262224;28;20559;-60
2022/05/13 22:38:27;;;;;;;5.03;2.00;;;;;;;13.08;53.02;100389.59;10262239;28;20466;-60
2022/05/13 22:43:31;;;;;;;4.78;1.90;;;;;;;12.96;53.35;100383.34;10262638;28;20105;-60
2022/05/13 22:48:35;;;;;;;6.72;1.92;;;;;;;12.87;53.53;100383.88;10284906;28;20169;-60
2022/05/13 22:53:37;;;;;;;4.28;1.90;;;;;;;12.77;53.98;100382.78;10276396;28;20078;-60
2022/05/13 22:58:39;;;;;;;6.05;2.10;;;;;;;12.67;53.95;100379.03;10261255;28;20058;-60
2022/05/13 23:03:41;;;;;;;6.32;2.10;;;;;;;12.59;53.98;100383.91;10260891;28;20051;-61
2022/05/13 23:14:03;;;;;;;;;;;;;;;11.97;55.47;100395.44;10281386;28;20423;-60
2022/05/13 23:19:05;;;;;;;4.28;2.00;;;;;;;12.22;54.77;100390.47;10259670;28;20378;-60
2022/05/13 23:24:07;;;;;;;5.93;2.05;;;;;;;12.17;54.82;100392.53;10261587;28;20533;-60
2022/05/13 23:29:10;;;;;;;4.65;1.80;;;;;;;12.02;55.49;100396.91;10281058;28;20094;-61
2022/05/13 23:34:12;;;;;;;5.03;2.13;;;;;;;12.00;55.77;100401.38;10259087;28;20081;-60
2022/05/13 23:39:14;;;;;;;7.63;2.10;;;;;;;12.02;55.93;100393.44;10260486;28;20447;-60
2022/05/13 23:44:15;;;;;;;5.03;2.10;;;;;;;12.01;55.79;100391.72;10264104;28;20051;-60
2022/05/13 23:49:17;;;;;;;6.00;2.28;;;;;;;11.84;55.88;100391.88;10282542;28;20093;-61
2022/05/13 23:59:43;;;;;;;3.93;2.17;;;;;;;11.85;56.05;100402.25;10267388;28;20057;-60
